createdAt,value
2022-07-29T00:00:17.905Z,3.90
2022-07-29T00:06:59.965Z,3.90
2022-07-29T00:17:20.893Z,4.00
2022-07-29T00:20:43.948Z,4.40
2022-07-29T00:23:56.103Z,4.60
2022-07-29T00:27:08.976Z,4.30
2022-07-29T00:30:22.873Z,4.20
2022-07-29T00:33:34.926Z,4.80
2022-07-29T00:36:45.554Z,4.80
2022-07-29T00:39:57.916Z,4.90
2022-07-29T00:43:20.503Z,4.60
2022-07-29T00:46:43.598Z,4.10
2022-07-29T00:49:54.875Z,4.60
2022-07-29T00:53:23.955Z,4.40
2022-07-29T00:56:53.850Z,4.40
2022-07-29T01:00:09.875Z,4.10
2022-07-29T01:06:54.802Z,4.50
2022-07-29T01:10:08.870Z,4.70
2022-07-29T01:17:01.619Z,5.40
2022-07-29T01:20:13.875Z,5.10
2022-07-29T01:37:22.815Z,4.30
2022-07-29T01:44:10.856Z,4.70
2022-07-29T01:47:23.846Z,4.40
2022-07-29T01:51:04.620Z,5.40
2022-07-29T01:54:27.336Z,4.80
2022-07-29T01:57:39.895Z,5.50
2022-07-29T02:04:30.016Z,5.10
2022-07-29T02:07:46.811Z,5.50
2022-07-29T02:14:40.646Z,5.50
2022-07-29T02:17:52.900Z,4.90
2022-07-29T02:24:41.922Z,5.40
2022-07-29T02:31:23.504Z,5.30
2022-07-29T02:38:23.994Z,5.10
2022-07-29T02:41:49.622Z,6.00
2022-07-29T02:45:04.925Z,5.70
2022-07-29T02:48:46.386Z,5.60
2022-07-29T02:55:39.590Z,5.00
2022-07-29T02:58:48.912Z,5.50
2022-07-29T03:06:00.854Z,5.50
2022-07-29T03:09:18.883Z,6.40
2022-07-29T03:12:59.375Z,5.90
2022-07-29T03:16:23.618Z,5.60
2022-07-29T03:23:45.410Z,5.10
2022-07-29T03:34:04.843Z,5.70
2022-07-29T03:37:20.801Z,5.30
2022-07-29T03:40:34.875Z,5.10
2022-07-29T03:50:25.815Z,5.00
2022-07-29T03:53:44.788Z,5.60
2022-07-29T04:06:44.814Z,6.90
2022-07-29T04:10:00.827Z,6.60
2022-07-29T04:20:27.788Z,7.50
2022-07-29T04:26:58.839Z,6.70
2022-07-29T04:30:16.787Z,6.70
2022-07-29T04:33:50.828Z,7.10
2022-07-29T04:37:22.869Z,6.60
2022-07-29T04:40:49.758Z,6.40
2022-07-29T04:47:52.166Z,6.80
2022-07-29T04:51:05.919Z,6.30
2022-07-29T04:54:22.852Z,6.80
2022-07-29T04:57:36.893Z,6.60
2022-07-29T05:04:11.838Z,6.90
2022-07-29T05:18:21.219Z,6.70
2022-07-29T05:21:34.793Z,7.20
2022-07-29T05:24:42.744Z,7.20
2022-07-29T05:31:16.866Z,7.40
2022-07-29T05:34:27.789Z,8.30
2022-07-29T05:37:54.709Z,7.80
2022-07-29T05:41:13.238Z,6.70
2022-07-29T05:44:40.210Z,6.80
2022-07-29T05:48:07.314Z,6.30
2022-07-29T05:58:58.851Z,6.90
2022-07-29T06:05:42.468Z,7.20
2022-07-29T06:09:00.772Z,7.40
2022-07-29T06:12:40.239Z,7.00
2022-07-29T06:15:57.558Z,6.90
2022-07-29T06:45:25.090Z,7.00
2022-07-29T06:51:54.687Z,6.50
2022-07-29T06:54:32.761Z,6.80
2022-07-29T06:57:00.801Z,7.00
2022-07-29T06:59:35.549Z,6.50
2022-07-29T07:02:05.451Z,7.20
2022-07-29T07:04:34.360Z,7.40
2022-07-29T07:07:02.529Z,7.00
2022-07-29T07:09:40.619Z,7.10
2022-07-29T07:12:10.257Z,7.50
2022-07-29T07:14:38.308Z,7.40
2022-07-29T07:17:08.061Z,6.80
2022-07-29T07:19:38.363Z,6.90
2022-07-29T07:22:06.375Z,7.00
2022-07-29T07:24:34.292Z,7.50
2022-07-29T07:27:02.860Z,7.00
2022-07-29T07:29:30.820Z,6.70
2022-07-29T07:32:01.226Z,7.20
2022-07-29T07:34:31.083Z,6.80
2022-07-29T07:36:59.528Z,6.90
2022-07-29T07:39:27.469Z,7.10
2022-07-29T07:41:55.623Z,7.40
2022-07-29T07:44:23.994Z,7.70
2022-07-29T07:46:52.320Z,7.20
2022-07-29T07:49:25.050Z,7.50
2022-07-29T07:51:57.224Z,7.00
2022-07-29T07:54:25.381Z,7.10
2022-07-29T07:56:54.207Z,6.80
2022-07-29T07:59:22.482Z,7.10
2022-07-29T08:01:55.510Z,7.30
2022-07-29T08:04:29.066Z,7.10
2022-07-29T08:07:05.598Z,7.00
2022-07-29T08:09:36.883Z,7.70
2022-07-29T08:19:22.980Z,6.60
2022-07-29T08:22:02.432Z,5.90
2022-07-29T08:24:49.811Z,7.00
2022-07-29T08:27:42.541Z,6.20
2022-07-29T08:30:40.078Z,6.50
2022-07-29T08:33:51.441Z,6.20
2022-07-29T08:36:30.734Z,9.90
2022-07-29T08:39:04.857Z,6.50
2022-07-29T08:41:33.895Z,6.60
2022-07-29T08:44:03.148Z,6.10
2022-07-29T08:46:41.909Z,5.80
2022-07-29T08:49:55.512Z,6.10
2022-07-29T09:01:14.902Z,5.60
2022-07-29T09:05:00.348Z,6.30
2022-07-29T09:08:50.848Z,6.10
2022-07-29T09:12:28.947Z,5.90
2022-07-29T09:16:11.467Z,5.60
2022-07-29T09:22:42.369Z,5.50
2022-07-29T09:25:39.445Z,5.70
2022-07-29T09:28:20.285Z,5.90
2022-07-29T09:31:01.595Z,5.60
2022-07-29T09:33:41.512Z,5.70
2022-07-29T09:40:28.136Z,5.80
2022-07-29T09:44:22.208Z,6.00
2022-07-29T09:47:12.423Z,5.50
2022-07-29T09:49:59.672Z,5.60
2022-07-29T09:52:31.406Z,5.80
2022-07-29T09:55:08.182Z,5.80
2022-07-29T09:57:40.266Z,5.50
2022-07-29T10:00:19.006Z,5.90
2022-07-29T10:02:48.730Z,5.40
2022-07-29T10:05:23.834Z,6.00
2022-07-29T10:07:57.559Z,5.50
2022-07-29T10:10:31.725Z,5.60
2022-07-29T10:13:08.940Z,5.90
2022-07-29T10:16:01.871Z,5.30
2022-07-29T10:18:49.936Z,5.90
2022-07-29T10:21:36.240Z,6.20
2022-07-29T10:24:27.314Z,5.30
2022-07-29T10:27:02.114Z,6.00
2022-07-29T10:29:32.914Z,5.30
2022-07-29T10:32:22.944Z,5.80
2022-07-29T10:35:19.673Z,5.30
2022-07-29T10:41:20.087Z,5.10
2022-07-29T10:44:17.442Z,5.20
2022-07-29T10:47:49.262Z,5.40
2022-07-29T10:58:56.655Z,5.60
2022-07-29T11:02:42.053Z,5.00
2022-07-29T11:05:59.873Z,5.00
2022-07-29T11:09:00.059Z,5.40
2022-07-29T11:17:26.295Z,4.70
2022-07-29T11:20:08.488Z,5.80
2022-07-29T11:31:00.507Z,4.90
2022-07-29T11:35:00.604Z,6.10
2022-07-29T11:38:27.810Z,5.40
2022-07-29T11:42:13.523Z,5.80
2022-07-29T11:45:45.442Z,5.80
2022-07-29T11:49:15.289Z,5.70
2022-07-29T11:52:22.978Z,6.20
2022-07-29T11:55:10.311Z,5.70
2022-07-29T11:58:03.982Z,5.70
2022-07-29T12:02:18.026Z,6.30
2022-07-29T12:05:36.316Z,5.70
2022-07-29T12:08:55.592Z,6.10
2022-07-29T12:11:37.655Z,6.60
2022-07-29T12:14:08.812Z,6.70
2022-07-29T12:24:49.337Z,6.70
2022-07-29T12:31:42.251Z,7.10
2022-07-29T12:35:27.069Z,5.70
2022-07-29T12:42:18.483Z,6.10
2022-07-29T12:45:40.182Z,5.70
2022-07-29T12:49:11.953Z,6.90
2022-07-29T12:52:42.834Z,6.90
2022-07-29T13:03:25.979Z,7.20
2022-07-29T13:06:04.888Z,6.70
2022-07-29T13:12:44.809Z,6.10
2022-07-29T13:16:05.396Z,5.80
2022-07-29T13:19:19.806Z,6.70
2022-07-29T13:22:26.787Z,5.80
2022-07-29T13:25:35.150Z,6.10
2022-07-29T13:28:32.809Z,6.50
2022-07-29T13:31:43.370Z,6.00
2022-07-29T13:34:30.363Z,6.50
2022-07-29T13:38:53.015Z,7.00
2022-07-29T13:40:58.586Z,7.10
2022-07-29T13:47:49.175Z,6.50
2022-07-29T13:54:28.597Z,5.70
2022-07-29T14:07:46.860Z,5.00
2022-07-29T14:12:01.552Z,5.50
2022-07-29T14:27:43.713Z,5.70
2022-07-29T14:39:42.641Z,6.00
2022-07-29T15:03:04.933Z,6.30
2022-07-29T15:10:04.268Z,7.10
2022-07-29T15:51:49.116Z,6.00
2022-07-29T16:05:51.085Z,5.80
2022-07-29T16:16:54.177Z,4.90
2022-07-29T16:20:26.583Z,6.60
2022-07-29T16:32:30.124Z,7.00
2022-07-29T17:39:12.215Z,5.40
2022-07-29T17:42:13.284Z,6.20
2022-07-29T18:03:12.436Z,6.70
2022-07-29T18:15:23.922Z,6.50
2022-07-29T18:18:47.711Z,6.80
2022-07-29T18:28:59.956Z,6.90
2022-07-29T18:38:01.010Z,7.50
2022-07-29T18:41:11.466Z,7.40
2022-07-29T18:48:14.265Z,7.50
2022-07-29T19:08:42.827Z,6.40
2022-07-29T19:24:52.369Z,8.00
2022-07-29T19:28:12.372Z,7.90
2022-07-29T19:34:46.507Z,7.80
2022-07-29T19:41:35.224Z,8.60
2022-07-29T19:45:32.050Z,6.50
2022-07-29T19:48:50.888Z,7.50
2022-07-29T19:59:08.669Z,6.80
2022-07-29T20:02:24.997Z,7.40
2022-07-29T20:09:42.788Z,7.20
2022-07-29T20:16:51.905Z,7.40
2022-07-29T20:20:31.291Z,7.10
2022-07-29T20:31:13.369Z,6.50
2022-07-29T20:38:01.051Z,5.50
2022-07-29T20:40:30.029Z,5.70
2022-07-29T20:43:06.045Z,5.30
2022-07-29T20:45:51.814Z,5.50
2022-07-29T20:48:41.054Z,5.20
2022-07-29T20:51:43.286Z,5.00
2022-07-29T20:54:15.840Z,5.30
2022-07-29T20:56:44.037Z,5.50
2022-07-29T20:59:11.991Z,6.00
2022-07-29T21:01:39.968Z,5.40
2022-07-29T21:04:07.943Z,5.80
2022-07-29T21:06:36.446Z,5.80
2022-07-29T21:09:04.563Z,5.70
2022-07-29T21:11:44.110Z,6.50
2022-07-29T21:14:31.377Z,6.30
2022-07-29T21:16:59.588Z,6.00
2022-07-29T21:19:27.875Z,5.80
2022-07-29T21:21:55.747Z,5.50
2022-07-29T21:24:23.836Z,6.00
2022-07-29T21:27:18.393Z,5.60
2022-07-29T21:29:39.691Z,4.70
2022-07-29T21:32:07.669Z,5.70
2022-07-29T21:34:35.620Z,4.70
2022-07-29T21:37:04.452Z,5.10
2022-07-29T21:39:35.381Z,5.20
2022-07-29T21:42:03.334Z,4.40
2022-07-29T21:44:31.324Z,4.60
2022-07-29T21:47:01.435Z,5.10
2022-07-29T21:49:29.944Z,4.70
2022-07-29T21:51:57.916Z,4.10
2022-07-29T21:54:26.055Z,4.50
2022-07-29T21:56:56.087Z,4.30
2022-07-29T21:59:25.857Z,4.60
2022-07-29T22:01:53.953Z,5.50
2022-07-29T22:04:22.180Z,5.30
2022-07-29T22:06:50.201Z,5.00
2022-07-29T22:09:18.114Z,5.50
2022-07-29T22:11:47.775Z,5.10
2022-07-29T22:14:17.636Z,5.50
2022-07-29T22:16:46.478Z,5.60
2022-07-29T22:19:15.748Z,5.40
2022-07-29T22:21:44.281Z,5.60
2022-07-29T22:24:12.174Z,5.20
2022-07-29T22:26:40.134Z,5.70
2022-07-29T22:29:08.028Z,4.80
2022-07-29T22:31:36.027Z,4.80
2022-07-29T22:34:04.493Z,5.00
2022-07-29T22:36:32.582Z,5.00
2022-07-29T22:39:00.454Z,5.70
2022-07-29T22:41:28.355Z,5.20
2022-07-29T22:43:56.293Z,5.50
2022-07-29T22:46:24.402Z,5.10
2022-07-29T22:48:52.438Z,5.30
2022-07-29T22:51:20.617Z,4.80
2022-07-29T22:53:48.797Z,4.90
2022-07-29T22:56:17.858Z,5.40
2022-07-29T22:58:45.874Z,5.10
2022-07-29T23:01:14.228Z,5.30
2022-07-29T23:03:50.836Z,5.70
2022-07-29T23:06:19.519Z,5.60
2022-07-29T23:08:47.354Z,5.40
2022-07-29T23:11:16.236Z,5.70
2022-07-29T23:13:44.182Z,6.00
2022-07-29T23:16:12.051Z,6.30
2022-07-29T23:18:39.940Z,6.20
2022-07-29T23:21:08.054Z,6.40
2022-07-29T23:23:36.037Z,5.60
2022-07-29T23:26:03.965Z,6.00
2022-07-29T23:28:31.928Z,5.80
2022-07-29T23:31:00.252Z,5.10
2022-07-29T23:33:28.210Z,5.70
2022-07-29T23:35:56.293Z,5.50
2022-07-29T23:38:24.112Z,5.30
2022-07-29T23:40:51.961Z,5.20
2022-07-29T23:43:19.861Z,5.00
2022-07-29T23:45:48.793Z,5.50
2022-07-29T23:48:16.973Z,5.20
2022-07-29T23:50:45.217Z,5.70
2022-07-29T23:53:13.083Z,5.50
2022-07-29T23:55:40.954Z,5.40
2022-07-29T23:58:08.895Z,5.90
